Time;durP1;ratioP1;P1;durP2;ratioP2;P2;SDS_P1;SDS_P2;PMS_P1;PMS_P2;Temp;Humidity;BMP_temperature;BMP_pressure;BME280_temperature;BME280_humidity;BME280_pressure;Samples;Min_cycle;Max_cycle;Signal;HPM_P1;HPM_P2
2023/06/02 00:02:23;;;;;;;5.27;4.57;;;12.80;66.00;;;;;;6348188;28;20239;-86
2023/06/02 00:05:27;;;;;;;15.60;5.83;;;12.80;65.90;;;;;;6343006;27;20216;-84
2023/06/02 00:08:32;;;;;;;17.10;5.17;;;12.70;66.10;;;;;;6351234;28;20228;-84
2023/06/02 00:11:38;;;;;;;12.33;5.23;;;12.70;66.20;;;;;;6347347;27;20244;-84
2023/06/02 00:14:42;;;;;;;13.67;5.17;;;12.70;66.20;;;;;;6370029;27;20215;-82
2023/06/02 00:17:46;;;;;;;17.00;5.00;;;12.60;66.20;;;;;;6348754;27;20280;-87
2023/06/02 00:20:49;;;;;;;10.87;5.40;;;12.60;66.50;;;;;;6346233;27;20220;-84
2023/06/02 00:23:52;;;;;;;15.87;5.50;;;12.60;66.40;;;;;;6347874;27;20227;-84
2023/06/02 00:26:57;;;;;;;7.60;5.63;;;12.50;66.60;;;;;;6337485;27;20275;-85
2023/06/02 00:30:01;;;;;;;8.93;4.57;;;12.50;66.50;;;;;;6353632;27;20227;-84
2023/06/02 00:33:05;;;;;;;8.17;5.27;;;12.50;66.60;;;;;;6344934;27;20611;-85
2023/06/02 00:36:08;;;;;;;19.43;5.70;;;12.50;66.80;;;;;;6325953;27;20238;-85
2023/06/02 00:39:12;;;;;;;10.73;5.80;;;12.30;67.00;;;;;;6331338;27;20228;-86
2023/06/02 00:42:21;;;;;;;14.50;5.13;;;12.30;67.00;;;;;;6337027;27;20251;-85
2023/06/02 00:45:25;;;;;;;10.77;5.13;;;12.20;67.20;;;;;;6312831;27;20322;-85
2023/06/02 00:48:28;;;;;;;13.83;5.63;;;12.10;67.40;;;;;;6309233;27;20236;-84
2023/06/02 00:51:32;;;;;;;14.63;5.10;;;12.10;67.50;;;;;;6311245;27;20270;-87
2023/06/02 00:54:36;;;;;;;14.57;5.70;;;12.10;67.40;;;;;;6319658;27;20232;-85
2023/06/02 00:57:41;;;;;;;12.57;5.77;;;12.00;67.50;;;;;;6315276;27;20235;-88
2023/06/02 01:00:47;;;;;;;14.77;6.17;;;12.00;67.70;;;;;;6312604;27;20228;-83
2023/06/02 01:03:51;;;;;;;12.13;5.13;;;12.00;67.60;;;;;;6321829;27;20237;-84
2023/06/02 01:07:00;;;;;;;12.73;5.90;;;12.00;67.40;;;;;;6313737;28;20307;-85
2023/06/02 01:10:04;;;;;;;16.17;5.87;;;11.90;67.90;;;;;;6321230;27;20750;-86
2023/06/02 01:13:09;;;;;;;17.07;5.67;;;11.90;67.80;;;;;;6323316;27;20604;-86
2023/06/02 01:16:13;;;;;;;18.80;5.87;;;11.80;68.10;;;;;;6328825;27;20731;-85
2023/06/02 01:19:21;;;;;;;12.17;5.67;;;11.70;68.00;;;;;;6328325;27;20306;-86
2023/06/02 01:22:29;;;;;;;14.87;5.77;;;11.70;68.20;;;;;;6309264;27;20637;-85
2023/06/02 01:25:36;;;;;;;15.73;6.00;;;11.70;68.40;;;;;;6310678;27;20229;-84
2023/06/02 01:28:39;;;;;;;13.00;5.70;;;11.70;68.30;;;;;;6351153;27;20239;-84
2023/06/02 01:31:47;;;;;;;15.50;5.27;;;11.60;68.30;;;;;;6351655;28;20220;-85
2023/06/02 01:34:58;;;;;;;11.93;5.27;;;11.50;68.40;;;;;;6363002;27;20333;-84
2023/06/02 01:38:01;;;;;;;14.60;6.03;;;11.50;68.40;;;;;;6354579;27;20236;-84
2023/06/02 01:41:07;;;;;;;11.10;5.50;;;11.50;68.30;;;;;;6357682;27;20247;-84
2023/06/02 01:44:11;;;;;;;9.77;4.83;;;11.50;68.40;;;;;;6345026;28;20220;-84
2023/06/02 01:47:14;;;;;;;13.97;5.80;;;11.40;68.60;;;;;;6357514;27;20220;-84
2023/06/02 01:50:18;;;;;;;15.23;5.63;;;11.30;68.90;;;;;;6362883;27;20228;-84
2023/06/02 01:53:21;;;;;;;12.77;5.53;;;11.30;68.90;;;;;;6350602;27;20239;-84
2023/06/02 01:56:25;;;;;;;18.90;6.70;;;11.20;68.90;;;;;;6325585;27;20233;-84
2023/06/02 01:59:29;;;;;;;10.53;5.50;;;11.10;69.00;;;;;;6340351;27;20391;-83
2023/06/02 02:02:32;;;;;;;15.30;6.60;;;11.10;69.10;;;;;;6343042;27;20233;-82
2023/06/02 02:05:36;;;;;;;11.17;5.53;;;11.10;69.10;;;;;;6355213;27;20246;-85
2023/06/02 02:08:39;;;;;;;14.03;6.00;;;11.10;69.10;;;;;;6340464;27;20237;-84
2023/06/02 02:11:44;;;;;;;15.50;6.27;;;11.00;69.40;;;;;;6315047;27;20241;-85
2023/06/02 02:14:50;;;;;;;13.43;5.40;;;11.00;69.40;;;;;;6327798;27;20240;-83
2023/06/02 02:17:56;;;;;;;12.80;5.80;;;10.90;69.30;;;;;;6343857;27;20292;-82
2023/06/02 02:21:00;;;;;;;15.33;5.93;;;10.80;69.40;;;;;;6340412;27;20224;-82
2023/06/02 02:24:03;;;;;;;16.03;5.77;;;10.80;69.50;;;;;;6345582;27;20265;-81
2023/06/02 02:27:08;;;;;;;7.67;5.03;;;10.80;69.60;;;;;;6367673;27;20232;-84
2023/06/02 02:30:12;;;;;;;12.70;6.00;;;10.70;69.50;;;;;;6342720;27;20236;-84
2023/06/02 02:33:15;;;;;;;14.90;6.00;;;10.70;69.40;;;;;;6342019;27;20246;-84
2023/06/02 02:36:18;;;;;;;24.20;6.00;;;10.60;69.60;;;;;;6335278;28;20247;-84
2023/06/02 02:39:24;;;;;;;12.73;5.47;;;10.50;69.80;;;;;;6354519;27;20279;-84
2023/06/02 02:42:33;;;;;;;11.70;5.97;;;10.50;70.00;;;;;;6330120;27;20237;-85
2023/06/02 02:45:37;;;;;;;12.83;5.70;;;10.50;69.90;;;;;;6324324;27;20236;-85
2023/06/02 02:48:40;;;;;;;18.23;6.63;;;10.40;69.90;;;;;;6326607;27;20222;-85
2023/06/02 02:51:43;;;;;;;11.20;6.40;;;10.40;69.80;;;;;;6323375;27;20266;-86
2023/06/02 02:54:46;;;;;;;20.80;6.27;;;10.40;70.10;;;;;;6327591;27;20236;-86
2023/06/02 02:57:51;;;;;;;20.33;6.60;;;10.30;70.00;;;;;;6310828;27;20224;-84
2023/06/02 03:00:55;;;;;;;17.97;6.80;;;10.30;69.90;;;;;;6306987;28;20869;-84
2023/06/02 03:03:59;;;;;;;10.80;6.10;;;10.30;69.90;;;;;;6327624;27;20252;-84
2023/06/02 03:07:02;;;;;;;13.83;5.97;;;10.40;69.90;;;;;;6316876;27;20724;-85
2023/06/02 03:10:06;;;;;;;17.13;6.30;;;10.40;69.90;;;;;;6307334;27;20229;-85
2023/06/02 03:13:11;;;;;;;14.90;5.87;;;10.40;69.70;;;;;;6320749;27;20240;-85
2023/06/02 03:16:16;;;;;;;11.10;6.10;;;10.40;69.70;;;;;;6312937;28;20236;-85
2023/06/02 03:19:21;;;;;;;14.43;6.40;;;10.40;69.70;;;;;;6327398;27;20228;-82
2023/06/02 03:22:24;;;;;;;17.87;6.30;;;10.40;69.60;;;;;;6338250;27;20243;-84
2023/06/02 03:25:28;;;;;;;16.50;6.00;;;10.40;69.60;;;;;;6313293;27;20763;-84
2023/06/02 03:28:32;;;;;;;16.30;6.83;;;10.40;69.50;;;;;;6321192;27;20232;-85
2023/06/02 03:31:36;;;;;;;19.03;6.30;;;10.40;69.40;;;;;;6300151;27;20243;-81
2023/06/02 03:34:44;;;;;;;15.70;6.87;;;10.30;69.40;;;;;;6328868;27;20228;-80
2023/06/02 03:37:47;;;;;;;16.23;6.20;;;10.40;69.40;;;;;;6333690;27;20338;-80
2023/06/02 03:40:51;;;;;;;11.53;5.87;;;10.40;69.40;;;;;;6341522;27;20800;-79
2023/06/02 03:43:55;;;;;;;15.30;6.23;;;10.40;69.40;;;;;;6334746;27;20251;-82
2023/06/02 03:46:59;;;;;;;14.17;5.93;;;10.40;69.60;;;;;;6326086;27;20306;-81
2023/06/02 03:50:02;;;;;;;20.57;6.07;;;10.40;69.50;;;;;;6336428;27;20405;-79
2023/06/02 03:53:05;;;;;;;14.13;6.00;;;10.40;69.50;;;;;;6338295;27;20443;-79
2023/06/02 03:56:08;;;;;;;16.13;6.33;;;10.40;69.50;;;;;;6342374;27;20232;-81
2023/06/02 03:59:13;;;;;;;15.80;5.77;;;10.50;69.40;;;;;;6338588;27;20308;-80
2023/06/02 04:02:16;;;;;;;13.10;5.73;;;10.50;69.40;;;;;;6334551;27;20324;-79
2023/06/02 04:05:20;;;;;;;15.20;6.10;;;10.50;69.50;;;;;;6333631;27;20231;-81
2023/06/02 04:08:23;;;;;;;14.93;6.00;;;10.60;69.20;;;;;;6335254;27;20236;-81
2023/06/02 04:11:26;;;;;;;19.57;5.87;;;10.70;69.30;;;;;;6331099;27;20243;-81
2023/06/02 04:14:32;;;;;;;21.70;6.17;;;10.80;68.90;;;;;;6328931;27;20228;-80
2023/06/02 04:17:36;;;;;;;15.53;6.13;;;10.80;68.60;;;;;;6322881;27;20233;-79
2023/06/02 04:20:39;;;;;;;15.80;6.40;;;10.80;68.60;;;;;;6331948;27;20624;-80
2023/06/02 04:23:43;;;;;;;14.43;6.33;;;11.00;68.40;;;;;;6346327;27;20247;-81
2023/06/02 04:26:46;;;;;;;14.17;6.47;;;11.00;68.40;;;;;;6331631;27;20309;-81
2023/06/02 04:29:51;;;;;;;12.27;6.27;;;11.10;68.00;;;;;;6336634;27;20243;-83
2023/06/02 04:32:55;;;;;;;14.27;6.83;;;11.30;67.80;;;;;;6339499;27;20769;-80
2023/06/02 04:35:58;;;;;;;15.40;6.57;;;11.40;67.30;;;;;;6327898;27;20226;-81
2023/06/02 04:39:01;;;;;;;15.53;6.23;;;11.60;67.20;;;;;;6348380;27;20228;-80
2023/06/02 04:42:05;;;;;;;17.47;6.60;;;11.70;67.10;;;;;;6342197;27;20235;-80
2023/06/02 04:45:12;;;;;;;24.23;6.40;;;11.70;66.50;;;;;;6317591;27;20224;-81
2023/06/02 04:48:15;;;;;;;12.27;6.20;;;11.60;66.70;;;;;;6336773;27;20608;-81
2023/06/02 04:51:19;;;;;;;15.47;6.77;;;11.70;66.60;;;;;;6328883;27;20251;-79
2023/06/02 04:54:22;;;;;;;18.07;7.07;;;11.70;66.50;;;;;;6322758;27;20319;-80
2023/06/02 04:57:25;;;;;;;17.57;6.20;;;11.70;66.60;;;;;;6330494;27;20309;-79
2023/06/02 05:00:30;;;;;;;13.13;6.53;;;11.70;66.60;;;;;;6328838;27;20310;-81
2023/06/02 05:03:33;;;;;;;17.30;6.50;;;11.50;67.30;;;;;;6332398;27;20235;-80
2023/06/02 05:06:37;;;;;;;11.90;6.03;;;11.60;67.30;;;;;;6340359;27;20318;-79
2023/06/02 05:09:40;;;;;;;16.13;6.40;;;11.70;67.00;;;;;;6338943;27;20681;-82
2023/06/02 05:12:43;;;;;;;18.50;6.47;;;11.70;66.90;;;;;;6341930;27;20284;-80
2023/06/02 05:15:48;;;;;;;12.60;5.77;;;11.70;66.70;;;;;;6340078;27;20246;-81
2023/06/02 05:18:51;;;;;;;11.30;6.00;;;11.70;66.90;;;;;;6323632;27;20228;-80
2023/06/02 05:21:54;;;;;;;14.90;6.03;;;11.80;66.60;;;;;;6317611;27;20308;-80
2023/06/02 05:24:58;;;;;;;12.87;5.63;;;11.80;66.80;;;;;;6310734;27;20231;-80
2023/06/02 05:28:01;;;;;;;11.00;5.63;;;11.90;66.60;;;;;;6303552;27;20229;-79
2023/06/02 05:31:05;;;;;;;13.97;6.83;;;11.90;66.70;;;;;;6303777;28;20233;-78
2023/06/02 05:34:08;;;;;;;14.13;6.40;;;12.00;66.40;;;;;;6314647;27;20239;-78
2023/06/02 05:37:13;;;;;;;20.33;6.47;;;12.10;66.40;;;;;;6315305;27;21056;-80
2023/06/02 05:40:16;;;;;;;16.50;6.50;;;12.20;66.30;;;;;;6322765;27;20700;-81
2023/06/02 05:43:19;;;;;;;15.50;6.10;;;12.30;65.70;;;;;;6306503;27;20229;-80
2023/06/02 05:46:24;;;;;;;16.73;6.37;;;12.50;65.80;;;;;;6317041;27;20323;-80
2023/06/02 05:49:27;;;;;;;12.77;5.83;;;12.50;65.90;;;;;;6315694;27;20327;-79
2023/06/02 05:52:30;;;;;;;12.80;5.67;;;12.60;65.60;;;;;;6318800;27;20257;-81
2023/06/02 05:55:33;;;;;;;13.70;6.03;;;12.50;65.60;;;;;;6307495;27;20243;-80
2023/06/02 05:58:39;;;;;;;15.90;5.93;;;12.70;65.30;;;;;;6307278;28;20276;-79
2023/06/02 06:01:44;;;;;;;14.60;6.57;;;12.80;65.30;;;;;;6313295;28;20235;-79
2023/06/02 06:04:47;;;;;;;15.23;6.57;;;12.70;65.40;;;;;;6316156;27;20349;-80
2023/06/02 06:07:50;;;;;;;15.53;6.40;;;12.70;65.50;;;;;;6310680;27;20325;-79
2023/06/02 06:10:53;;;;;;;16.53;6.13;;;12.70;65.70;;;;;;6304640;27;20240;-79
2023/06/02 06:13:56;;;;;;;14.77;6.87;;;12.70;65.70;;;;;;6318083;27;20250;-80
2023/06/02 06:17:01;;;;;;;18.83;6.23;;;12.70;65.70;;;;;;6314864;27;20758;-78
2023/06/02 06:20:09;;;;;;;16.77;6.70;;;12.80;65.60;;;;;;6314857;27;20366;-80
2023/06/02 06:23:13;;;;;;;18.70;6.67;;;12.70;65.80;;;;;;6299806;27;20252;-80
2023/06/02 06:26:16;;;;;;;11.43;6.33;;;12.70;66.00;;;;;;6303219;27;20293;-80
2023/06/02 06:29:20;;;;;;;16.77;6.73;;;12.70;66.60;;;;;;6310124;27;20265;-79
2023/06/02 06:32:24;;;;;;;19.10;7.20;;;12.70;66.50;;;;;;6306915;27;20320;-81
2023/06/02 06:35:28;;;;;;;18.50;7.30;;;12.70;66.30;;;;;;6318353;27;20240;-79
2023/06/02 06:38:33;;;;;;;16.10;6.40;;;12.80;66.30;;;;;;6300981;27;20276;-80
2023/06/02 06:41:40;;;;;;;14.83;7.10;;;12.80;66.70;;;;;;6304316;28;20233;-80
2023/06/02 06:44:43;;;;;;;14.47;6.03;;;13.00;66.00;;;;;;6316365;27;20228;-81
2023/06/02 06:47:49;;;;;;;13.77;6.70;;;13.00;65.90;;;;;;6319993;27;20321;-80
2023/06/02 06:50:52;;;;;;;12.70;6.17;;;13.10;65.70;;;;;;6315179;28;20243;-79
2023/06/02 06:53:56;;;;;;;18.83;7.03;;;13.30;65.60;;;;;;6314034;27;20926;-79
2023/06/02 06:56:59;;;;;;;16.93;7.80;;;13.40;65.60;;;;;;6311734;28;20305;-76
2023/06/02 07:00:03;;;;;;;18.33;7.10;;;13.50;65.60;;;;;;6314134;27;20233;-81
2023/06/02 07:03:08;;;;;;;11.77;7.37;;;13.50;65.50;;;;;;6314150;27;20237;-80
2023/06/02 07:06:11;;;;;;;17.57;6.93;;;13.50;65.70;;;;;;6311952;27;20236;-78
2023/06/02 07:09:15;;;;;;;17.20;7.33;;;13.70;65.20;;;;;;6310899;27;20239;-80
2023/06/02 07:12:18;;;;;;;17.63;7.87;;;13.80;65.00;;;;;;6304407;27;20236;-80
2023/06/02 07:15:21;;;;;;;19.20;7.87;;;13.90;64.80;;;;;;6310487;28;20231;-80
2023/06/02 07:18:26;;;;;;;15.43;7.80;;;14.10;64.80;;;;;;6307241;27;20743;-79
2023/06/02 07:21:30;;;;;;;16.23;8.43;;;14.50;63.80;;;;;;6311432;27;20256;-80
2023/06/02 07:24:34;;;;;;;16.30;7.53;;;14.90;63.30;;;;;;6305497;27;20423;-80
2023/06/02 07:27:37;;;;;;;20.47;8.47;;;15.40;63.20;;;;;;6305731;28;20243;-78
2023/06/02 07:30:47;;;;;;;14.23;7.90;;;15.60;61.90;;;;;;6308630;27;20288;-79
2023/06/02 07:34:12;;;;;;;14.20;7.63;;;15.60;61.40;;;;;;6317804;27;20232;-80
2023/06/02 07:37:15;;;;;;;15.80;8.30;;;15.50;62.10;;;;;;6309117;27;20780;-78
2023/06/02 07:40:19;;;;;;;15.53;8.20;;;15.60;61.70;;;;;;6309557;27;20244;-81
2023/06/02 07:43:22;;;;;;;17.10;9.63;;;15.60;61.70;;;;;;6313046;27;20262;-80
2023/06/02 07:46:25;;;;;;;18.87;8.40;;;15.70;61.40;;;;;;6316780;27;20748;-79
2023/06/02 07:49:30;;;;;;;21.93;9.00;;;15.40;61.70;;;;;;6323922;27;20308;-80
2023/06/02 07:52:34;;;;;;;12.27;8.50;;;15.30;62.40;;;;;;6314074;28;20239;-79
2023/06/02 07:55:37;;;;;;;23.57;9.33;;;15.10;62.80;;;;;;6303666;27;20314;-81
2023/06/02 07:58:41;;;;;;;14.57;8.00;;;15.00;63.10;;;;;;6315624;27;20830;-78
2023/06/02 08:01:44;;;;;;;14.40;7.77;;;15.10;63.00;;;;;;6300177;27;20335;-81
2023/06/02 08:04:48;;;;;;;11.43;6.27;;;15.10;63.40;;;;;;6310639;28;20284;-80
2023/06/02 08:07:52;;;;;;;13.77;7.37;;;15.20;63.50;;;;;;6308722;27;20240;-80
2023/06/02 08:10:57;;;;;;;15.07;8.07;;;15.30;63.30;;;;;;6313871;27;20232;-78
2023/06/02 08:14:00;;;;;;;12.70;6.77;;;15.40;62.90;;;;;;6310828;27;20305;-80
2023/06/02 08:17:03;;;;;;;17.53;6.87;;;15.40;62.70;;;;;;6314945;27;20236;-79
2023/06/02 08:20:09;;;;;;;10.47;6.53;;;15.50;62.80;;;;;;6309243;27;20232;-79
2023/06/02 08:23:13;;;;;;;8.27;5.30;;;15.50;62.90;;;;;;6311731;27;20321;-81
2023/06/02 08:26:17;;;;;;;7.40;5.47;;;15.50;62.60;;;;;;6312668;27;20232;-81
2023/06/02 08:29:20;;;;;;;10.57;5.40;;;15.50;62.80;;;;;;6311862;27;20280;-79
2023/06/02 08:32:24;;;;;;;8.17;5.50;;;15.40;62.90;;;;;;6311115;28;20324;-79
2023/06/02 08:35:32;;;;;;;10.70;5.80;;;15.30;62.80;;;;;;6303554;27;20768;-80
2023/06/02 08:38:40;;;;;;;10.20;5.83;;;15.30;63.00;;;;;;6307801;27;20236;-79
2023/06/02 08:41:47;;;;;;;10.93;5.63;;;15.40;63.00;;;;;;6338796;27;20682;-80
2023/06/02 08:44:50;;;;;;;9.90;5.53;;;15.50;62.90;;;;;;6336590;27;20251;-79
2023/06/02 08:47:54;;;;;;;5.40;4.90;;;15.60;62.50;;;;;;6320512;27;20232;-79
2023/06/02 08:50:59;;;;;;;5.67;5.13;;;15.80;62.40;;;;;;6322731;27;21111;-82
2023/06/02 08:54:03;;;;;;;5.00;4.67;;;16.10;60.40;;;;;;6329372;27;20718;-80
2023/06/02 08:57:09;;;;;;;9.80;5.20;;;16.20;58.90;;;;;;6334364;27;20300;-80
2023/06/02 09:00:13;;;;;;;4.57;4.23;;;16.40;59.00;;;;;;6337992;27;20324;-78
2023/06/02 09:03:16;;;;;;;5.80;5.20;;;16.40;58.70;;;;;;6331963;27;20240;-79
2023/06/02 09:06:25;;;;;;;5.47;5.00;;;16.40;59.00;;;;;;6332308;27;20320;-80
2023/06/02 09:09:39;;;;;;;4.83;4.33;;;16.40;59.60;;;;;;6326350;27;20240;-79
2023/06/02 09:12:48;;;;;;;5.37;4.70;;;16.50;59.20;;;;;;6308713;27;20716;-78
2023/06/02 09:15:56;;;;;;;6.73;5.30;;;16.50;58.50;;;;;;6306981;28;20663;-79
2023/06/02 09:19:01;;;;;;;5.07;4.77;;;16.40;58.50;;;;;;6317899;27;20233;-79
2023/06/02 09:22:07;;;;;;;4.73;4.47;;;16.60;57.50;;;;;;6310984;28;20247;-79
2023/06/02 09:25:21;;;;;;;5.43;4.37;;;17.00;56.10;;;;;;6311971;27;20294;-81
2023/06/02 09:28:25;;;;;;;6.50;3.97;;;17.40;56.40;;;;;;6308793;27;20849;-79
2023/06/02 09:31:29;;;;;;;4.33;3.93;;;18.10;56.20;;;;;;6311238;28;20255;-79
2023/06/02 09:34:35;;;;;;;5.57;4.13;;;18.30;52.80;;;;;;6308159;27;20237;-78
2023/06/02 09:37:57;;;;;;;3.73;3.53;;;18.40;52.30;;;;;;6306256;27;20248;-79
2023/06/02 09:41:15;;;;;;;2.47;2.37;;;18.60;51.10;;;;;;6311196;27;20233;-81
2023/06/02 09:44:23;;;;;;;2.63;2.40;;;18.90;48.30;;;;;;6312321;27;20235;-81
2023/06/02 09:47:26;;;;;;;2.93;2.57;;;19.00;47.10;;;;;;6309558;27;20232;-79
2023/06/02 09:50:35;;;;;;;3.57;2.60;;;19.10;46.10;;;;;;6313989;27;20229;-80
2023/06/02 09:53:42;;;;;;;2.13;2.00;;;19.40;46.30;;;;;;6314063;27;20719;-79
2023/06/02 09:56:46;;;;;;;2.70;2.27;;;19.60;45.70;;;;;;6304931;27;20635;-80
2023/06/02 09:59:49;;;;;;;5.20;2.30;;;20.10;45.20;;;;;;6313723;27;20233;-80
2023/06/02 10:02:53;;;;;;;3.03;2.03;;;20.20;43.90;;;;;;6311677;27;20229;-80
2023/06/02 10:06:07;;;;;;;4.30;2.30;;;20.00;43.50;;;;;;6317280;27;20228;-81
2023/06/02 10:09:26;;;;;;;3.37;2.10;;;19.80;43.20;;;;;;6307897;27;20716;-80
2023/06/02 10:12:43;;;;;;;2.50;2.40;;;19.90;43.30;;;;;;6316029;27;20322;-79
2023/06/02 10:16:00;;;;;;;2.50;2.10;;;19.90;42.90;;;;;;6308837;27;20554;-81
2023/06/02 10:19:31;;;;;;;2.10;2.00;;;19.90;43.10;;;;;;6310146;27;20620;-79
2023/06/02 10:22:48;;;;;;;5.03;2.00;;;19.80;42.90;;;;;;6307031;27;20728;-79
2023/06/02 10:26:13;;;;;;;3.03;2.37;;;19.50;42.90;;;;;;6309291;28;20231;-81
2023/06/02 10:29:16;;;;;;;3.23;2.27;;;19.50;43.20;;;;;;6315104;28;20237;-80
2023/06/02 10:32:22;;;;;;;2.50;2.30;;;19.50;43.70;;;;;;6328423;27;20255;-80
2023/06/02 10:35:58;;;;;;;2.77;2.37;;;19.60;43.40;;;;;;6321354;27;20232;-80
2023/06/02 10:39:46;;;;;;;2.90;2.70;;;19.60;43.60;;;;;;6309548;27;20233;-79
2023/06/02 10:43:20;;;;;;;2.30;2.00;;;19.90;44.00;;;;;;6312189;27;20244;-80
2023/06/02 10:46:24;;;;;;;2.60;2.40;;;20.20;43.00;;;;;;6235398;28;20255;-80
2023/06/02 10:49:52;;;;;;;4.47;2.50;;;20.40;43.50;;;;;;6313930;28;20237;-80
2023/06/02 10:53:14;;;;;;;2.47;2.23;;;20.10;43.90;;;;;;6310190;27;20233;-81
2023/06/02 10:56:42;;;;;;;2.00;2.00;;;19.90;44.00;;;;;;6301974;27;20229;-80
2023/06/02 10:59:46;;;;;;;2.03;1.93;;;19.90;44.10;;;;;;6310728;28;20315;-79
2023/06/02 11:02:49;;;;;;;2.83;2.70;;;19.70;44.30;;;;;;6313301;27;20247;-81
2023/06/02 11:06:20;;;;;;;3.40;2.40;;;19.90;44.90;;;;;;6315246;27;20742;-80
2023/06/02 11:09:39;;;;;;;3.87;2.40;;;19.80;44.70;;;;;;6320182;27;20584;-81
2023/06/02 11:13:03;;;;;;;2.50;2.30;;;20.00;45.00;;;;;;6313918;27;20237;-79
2023/06/02 11:16:17;;;;;;;2.13;2.10;;;20.10;44.40;;;;;;6315541;27;20244;-79
2023/06/02 11:19:47;;;;;;;4.17;2.30;;;20.00;44.30;;;;;;6325440;28;20228;-79
2023/06/02 11:22:50;;;;;;;4.13;2.30;;;19.80;44.70;;;;;;6312239;27;20262;-82
2023/06/02 11:26:06;;;;;;;2.83;2.43;;;19.90;44.70;;;;;;6320096;27;20883;-80
2023/06/02 11:29:17;;;;;;;4.00;2.20;;;20.00;43.90;;;;;;6333156;27;20259;-80
2023/06/02 11:32:21;;;;;;;2.57;2.20;;;20.00;44.10;;;;;;6359056;27;20262;-80
2023/06/02 11:35:27;;;;;;;3.90;2.43;;;19.90;43.90;;;;;;6343067;27;20313;-80
2023/06/02 11:38:32;;;;;;;3.33;2.10;;;19.90;44.00;;;;;;6339598;27;20477;-80
2023/06/02 11:41:36;;;;;;;2.60;2.00;;;20.00;44.30;;;;;;6328222;27;20718;-80
2023/06/02 11:44:48;;;;;;;4.67;2.07;;;20.40;44.70;;;;;;6357701;27;20228;-80
2023/06/02 11:48:01;;;;;;;2.17;2.07;;;20.50;43.20;;;;;;6339559;27;20307;-81
2023/06/02 11:51:05;;;;;;;4.73;2.80;;;20.30;43.10;;;;;;6334344;27;20751;-81
2023/06/02 11:54:10;;;;;;;3.03;1.97;;;20.00;43.30;;;;;;6334919;27;20239;-79
2023/06/02 11:57:13;;;;;;;4.47;2.40;;;20.00;43.20;;;;;;6324647;27;20263;-81
2023/06/02 12:00:16;;;;;;;2.53;2.10;;;20.10;43.30;;;;;;6331522;27;20355;-79
2023/06/02 12:03:24;;;;;;;5.70;2.07;;;20.20;43.00;;;;;;6336564;27;20237;-81
2023/06/02 12:06:29;;;;;;;4.70;2.13;;;20.00;42.50;;;;;;6332816;27;20239;-78
2023/06/02 12:09:32;;;;;;;4.60;2.23;;;19.70;42.00;;;;;;6332596;27;20255;-81
2023/06/02 12:12:36;;;;;;;5.43;2.10;;;19.70;41.80;;;;;;6333633;27;20232;-80
2023/06/02 12:15:39;;;;;;;2.27;2.07;;;19.70;41.30;;;;;;6329796;27;20244;-81
2023/06/02 12:18:44;;;;;;;3.57;2.20;;;19.90;40.30;;;;;;6333589;27;20224;-82
2023/06/02 12:21:48;;;;;;;1.80;1.70;;;20.00;40.60;;;;;;6336458;27;20236;-79
2023/06/02 12:24:51;;;;;;;1.77;1.77;;;20.30;40.60;;;;;;6333415;27;20851;-82
2023/06/02 12:28:04;;;;;;;2.37;1.73;;;20.40;39.30;;;;;;6329857;27;20309;-81
2023/06/02 12:31:08;;;;;;;1.90;1.80;;;20.60;39.70;;;;;;6329556;27;20278;-79
2023/06/02 12:34:12;;;;;;;4.40;1.87;;;20.70;38.70;;;;;;6321945;27;20319;-80
2023/06/02 12:37:17;;;;;;;4.67;1.77;;;20.60;37.90;;;;;;6325657;27;20263;-80
2023/06/02 12:40:21;;;;;;;1.87;1.77;;;20.60;38.40;;;;;;6333380;27;20236;-82
2023/06/02 12:43:24;;;;;;;4.67;1.60;;;20.60;37.60;;;;;;6323798;27;20304;-80
2023/06/02 12:46:28;;;;;;;1.60;1.60;;;20.50;37.60;;;;;;6338198;27;20346;-79
2023/06/02 12:49:32;;;;;;;4.90;2.10;;;20.30;37.50;;;;;;6338529;27;20235;-80
2023/06/02 12:52:36;;;;;;;3.73;2.00;;;20.50;37.90;;;;;;6334853;27;20236;-82
2023/06/02 12:55:39;;;;;;;3.90;1.67;;;20.60;37.30;;;;;;6328568;27;20239;-78
2023/06/02 12:58:42;;;;;;;6.33;1.80;;;20.50;37.10;;;;;;6333075;27;20239;-79
2023/06/02 13:01:45;;;;;;;5.37;2.20;;;20.40;37.00;;;;;;6327109;27;20256;-79
2023/06/02 13:04:52;;;;;;;3.27;1.87;;;20.40;37.00;;;;;;6331303;27;20251;-82
2023/06/02 13:07:55;;;;;;;1.80;1.80;;;20.50;37.10;;;;;;6327655;27;20692;-81
2023/06/02 13:10:58;;;;;;;3.53;1.70;;;20.70;36.60;;;;;;6341746;27;20236;-80
2023/06/02 13:14:01;;;;;;;1.90;1.80;;;20.70;36.40;;;;;;6331319;27;20753;-78
2023/06/02 13:17:06;;;;;;;1.93;1.40;;;20.50;36.20;;;;;;6337244;27;20242;-79
2023/06/02 13:20:12;;;;;;;2.03;1.93;;;20.40;37.20;;;;;;6329256;27;20248;-81
2023/06/02 13:23:15;;;;;;;2.17;1.90;;;20.50;36.20;;;;;;6333766;27;20255;-81
2023/06/02 13:26:19;;;;;;;4.53;2.07;;;20.30;36.70;;;;;;6335548;27;20580;-82
2023/06/02 13:29:22;;;;;;;1.80;1.80;;;20.20;36.60;;;;;;6332592;27;20230;-79
2023/06/02 13:32:25;;;;;;;4.07;2.10;;;20.10;36.80;;;;;;6330622;27;20236;-78
2023/06/02 13:35:30;;;;;;;1.80;1.70;;;20.30;36.70;;;;;;6331853;27;20290;-81
2023/06/02 13:38:33;;;;;;;1.73;1.70;;;20.30;36.30;;;;;;6337137;27;20841;-81
2023/06/02 13:41:36;;;;;;;2.47;2.20;;;20.30;36.70;;;;;;6330450;27;20311;-81
2023/06/02 13:44:39;;;;;;;2.10;2.00;;;20.30;36.30;;;;;;6363371;27;20266;-82
2023/06/02 13:47:42;;;;;;;2.20;1.80;;;20.20;36.10;;;;;;6348978;27;20243;-80
2023/06/02 13:50:47;;;;;;;2.97;1.40;;;20.30;35.90;;;;;;6341757;27;20243;-81
2023/06/02 13:53:50;;;;;;;2.80;1.93;;;20.30;36.10;;;;;;6333124;27;20247;-81
2023/06/02 13:56:54;;;;;;;3.03;1.73;;;20.30;36.70;;;;;;6335168;27;20224;-82
2023/06/02 13:59:57;;;;;;;3.83;1.57;;;20.20;37.10;;;;;;6341349;27;20232;-80
2023/06/02 14:03:00;;;;;;;4.73;2.03;;;20.20;37.20;;;;;;6342188;27;20231;-79
2023/06/02 14:06:05;;;;;;;3.63;1.70;;;20.30;37.60;;;;;;6336916;27;20322;-81
2023/06/02 14:09:09;;;;;;;1.60;1.60;;;20.30;37.70;;;;;;6336301;27;20831;-80
2023/06/02 14:12:13;;;;;;;2.10;1.40;;;20.60;37.80;;;;;;6337546;27;20236;-79
2023/06/02 14:15:16;;;;;;;2.47;1.63;;;20.50;37.00;;;;;;6340448;27;20243;-81
2023/06/02 14:18:19;;;;;;;3.23;1.80;;;20.40;37.50;;;;;;6336982;27;20248;-83
2023/06/02 14:21:25;;;;;;;1.30;1.30;;;20.50;37.80;;;;;;6342258;27;20837;-80
2023/06/02 14:24:28;;;;;;;3.13;1.60;;;20.60;37.50;;;;;;6342440;27;20228;-81
2023/06/02 14:27:33;;;;;;;1.60;1.50;;;20.70;36.30;;;;;;6326902;27;20725;-85
2023/06/02 14:30:39;;;;;;;1.83;1.77;;;20.80;36.80;;;;;;6318555;27;20235;-80
2023/06/02 14:33:45;;;;;;;1.87;1.70;;;20.80;37.40;;;;;;6312163;27;20232;-82
2023/06/02 14:36:50;;;;;;;1.87;1.77;;;20.80;36.60;;;;;;6318934;27;20371;-82
2023/06/02 14:39:55;;;;;;;4.57;1.50;;;20.80;37.10;;;;;;6313334;27;20240;-83
2023/06/02 14:42:58;;;;;;;1.90;1.90;;;20.80;37.10;;;;;;6312044;27;20240;-80
2023/06/02 14:46:06;;;;;;;1.70;1.60;;;20.70;36.20;;;;;;6315691;27;20724;-81
2023/06/02 14:49:10;;;;;;;1.70;1.60;;;20.50;36.50;;;;;;6318920;27;20615;-79
2023/06/02 14:52:15;;;;;;;1.93;1.73;;;20.50;36.90;;;;;;6314740;27;20233;-83
2023/06/02 14:55:18;;;;;;;1.93;1.83;;;20.50;36.10;;;;;;6316338;27;20241;-79
2023/06/02 14:58:22;;;;;;;4.33;1.50;;;20.30;36.60;;;;;;6317526;27;20236;-85
2023/06/02 15:01:25;;;;;;;3.60;1.60;;;20.30;36.20;;;;;;6297167;28;20461;-84
2023/06/02 15:04:29;;;;;;;2.80;1.80;;;20.30;36.80;;;;;;6322520;27;20232;-85
2023/06/02 15:07:36;;;;;;;2.70;1.60;;;20.40;36.20;;;;;;6310002;27;20239;-87
2023/06/02 15:10:39;;;;;;;1.53;1.53;;;20.50;35.90;;;;;;6329575;27;20331;-80
2023/06/02 15:13:43;;;;;;;3.37;1.53;;;20.50;36.00;;;;;;6314293;27;20281;-83
2023/06/02 15:16:47;;;;;;;3.90;1.60;;;20.50;36.20;;;;;;6314981;27;20743;-80
2023/06/02 15:19:54;;;;;;;1.90;1.70;;;20.50;35.70;;;;;;6315030;27;20235;-82
2023/06/02 15:23:03;;;;;;;2.03;1.80;;;20.50;36.00;;;;;;6316353;27;20394;-82
2023/06/02 15:26:07;;;;;;;4.47;1.90;;;20.60;36.50;;;;;;6311989;27;20592;-85
2023/06/02 15:29:10;;;;;;;2.47;1.50;;;20.40;35.70;;;;;;6311257;27;20314;-83
2023/06/02 15:32:13;;;;;;;1.60;1.60;;;20.10;35.60;;;;;;6309118;27;20233;-81
2023/06/02 15:35:16;;;;;;;3.93;1.80;;;20.00;36.30;;;;;;6310990;27;20724;-82
2023/06/02 15:38:21;;;;;;;1.70;1.70;;;20.00;36.00;;;;;;6300614;28;20317;-82
2023/06/02 15:41:24;;;;;;;5.23;1.70;;;19.80;36.10;;;;;;6317747;27;20267;-81
2023/06/02 15:44:27;;;;;;;3.77;1.60;;;19.90;36.40;;;;;;6311235;27;20228;-82
2023/06/02 15:47:31;;;;;;;1.73;1.50;;;19.90;35.70;;;;;;6319802;28;20722;-81
2023/06/02 15:50:34;;;;;;;1.83;1.83;;;19.60;36.10;;;;;;6316461;27;20829;-79
2023/06/02 15:53:40;;;;;;;1.40;1.40;;;19.60;36.80;;;;;;6306788;27;20256;-81
2023/06/02 15:56:44;;;;;;;2.40;2.37;;;19.60;37.20;;;;;;6311161;27;20775;-84
2023/06/02 15:59:47;;;;;;;2.87;1.90;;;19.60;37.60;;;;;;6325461;27;20298;-81